Time;durP1;ratioP1;P1;durP2;ratioP2;P2;SDS_P1;SDS_P2;PMS_P1;PMS_P2;Temp;Humidity;BMP_temperature;BMP_pressure;BME280_temperature;BME280_humidity;BME280_pressure;Samples;Min_cycle;Max_cycle;Signal;HPM_P1;HPM_P2
2023/12/02 00:02:23;;;;;;;6.27;5.30;;;2.80;99.90;;;;;;5076851;28;20183;-77
2023/12/02 00:04:49;;;;;;;4.93;4.53;;;3.00;99.90;;;;;;5095002;28;20174;-78
2023/12/02 00:07:14;;;;;;;8.37;5.07;;;2.90;99.90;;;;;;5083993;28;20238;-77
2023/12/02 00:09:40;;;;;;;6.00;5.10;;;2.90;99.90;;;;;;5086601;28;20216;-79
2023/12/02 00:12:06;;;;;;;6.63;4.97;;;2.90;99.90;;;;;;5085666;28;20171;-80
2023/12/02 00:14:32;;;;;;;5.83;4.80;;;2.90;99.90;;;;;;5076499;28;20182;-78
2023/12/02 00:16:58;;;;;;;6.17;4.63;;;2.80;99.90;;;;;;5057765;28;20648;-79
2023/12/02 00:19:23;;;;;;;7.40;5.07;;;2.80;99.90;;;;;;5079344;28;20210;-79
2023/12/02 00:21:50;;;;;;;6.67;5.20;;;2.80;99.90;;;;;;5085823;28;20525;-80
2023/12/02 00:24:16;;;;;;;7.10;5.20;;;2.90;99.90;;;;;;5077564;28;20160;-80
2023/12/02 00:26:42;;;;;;;6.03;5.33;;;2.90;99.90;;;;;;5057310;28;20184;-80
2023/12/02 00:29:07;;;;;;;5.47;4.73;;;2.90;99.90;;;;;;5073890;28;20957;-78
2023/12/02 00:31:33;;;;;;;5.90;5.33;;;3.00;99.90;;;;;;5074687;28;20175;-78
2023/12/02 00:33:59;;;;;;;5.30;4.80;;;3.00;99.90;;;;;;5075179;28;20225;-79
2023/12/02 00:36:25;;;;;;;7.90;5.33;;;3.10;99.90;;;;;;5075600;28;20168;-79
2023/12/02 00:38:51;;;;;;;6.37;5.00;;;3.20;99.90;;;;;;5057057;28;20510;-77
2023/12/02 00:41:16;;;;;;;6.73;5.20;;;3.10;99.90;;;;;;5075397;28;20257;-79
2023/12/02 00:43:42;;;;;;;7.33;5.27;;;3.20;99.90;;;;;;5074857;28;20206;-79
2023/12/02 00:46:08;;;;;;;5.40;4.93;;;3.30;99.90;;;;;;5075455;28;20669;-77
2023/12/02 00:48:34;;;;;;;5.83;5.03;;;3.30;99.90;;;;;;5075314;28;20787;-79
2023/12/02 00:50:59;;;;;;;6.30;5.50;;;3.30;99.90;;;;;;5077218;28;20667;-81
2023/12/02 00:53:25;;;;;;;6.93;5.13;;;3.20;99.90;;;;;;5075182;28;20160;-80
2023/12/02 00:55:51;;;;;;;7.17;5.13;;;3.20;99.90;;;;;;5074893;28;20178;-80
2023/12/02 00:58:17;;;;;;;7.27;4.83;;;3.10;99.90;;;;;;5075268;28;20650;-80
2023/12/02 01:00:42;;;;;;;5.40;4.90;;;3.10;99.90;;;;;;5074931;28;20164;-80
2023/12/02 01:03:08;;;;;;;6.37;4.90;;;3.20;99.90;;;;;;5075180;28;20175;-79
2023/12/02 01:05:34;;;;;;;6.57;4.30;;;3.30;99.90;;;;;;5075321;28;20992;-78
2023/12/02 01:08:00;;;;;;;4.83;4.07;;;3.30;99.90;;;;;;5074676;28;20292;-78
2023/12/02 01:10:26;;;;;;;5.53;4.90;;;3.30;99.90;;;;;;5074354;28;20165;-79
2023/12/02 01:12:51;;;;;;;6.37;4.57;;;3.30;99.90;;;;;;5074623;28;20221;-81
2023/12/02 01:15:17;;;;;;;5.40;4.70;;;3.20;99.90;;;;;;5074454;28;20177;-80
2023/12/02 01:17:43;;;;;;;6.97;5.43;;;3.20;99.90;;;;;;5073660;28;20175;-75
2023/12/02 01:20:09;;;;;;;5.17;4.40;;;3.20;99.90;;;;;;5074229;28;20638;-78
2023/12/02 01:22:35;;;;;;;6.67;5.30;;;3.20;99.90;;;;;;5074575;28;20184;-79
2023/12/02 01:25:01;;;;;;;5.30;4.80;;;3.20;99.90;;;;;;5056776;28;20186;-79
2023/12/02 01:27:27;;;;;;;5.20;4.70;;;3.20;99.90;;;;;;5075536;28;20192;-78
2023/12/02 01:29:52;;;;;;;5.00;4.50;;;3.20;99.90;;;;;;5078279;28;20207;-76
2023/12/02 01:32:18;;;;;;;5.83;4.70;;;3.20;99.90;;;;;;5090084;28;20189;-78
2023/12/02 01:34:46;;;;;;;7.03;4.00;;;3.10;99.90;;;;;;5078764;28;20258;-78
2023/12/02 01:37:11;;;;;;;4.77;4.10;;;3.20;99.90;;;;;;5074569;28;20247;-77
2023/12/02 01:39:37;;;;;;;5.60;4.20;;;3.20;99.90;;;;;;5076777;28;20186;-78
2023/12/02 01:42:04;;;;;;;5.13;4.10;;;3.10;99.90;;;;;;5077275;28;20171;-80
2023/12/02 01:44:30;;;;;;;4.33;3.93;;;3.10;99.90;;;;;;5086481;28;20195;-79
2023/12/02 01:46:56;;;;;;;4.73;4.30;;;3.10;99.90;;;;;;5088766;28;20213;-77
2023/12/02 01:49:23;;;;;;;4.43;4.03;;;3.10;99.90;;;;;;5074534;28;20214;-80
2023/12/02 01:51:49;;;;;;;4.03;3.70;;;3.10;99.90;;;;;;5074422;28;20635;-79
2023/12/02 01:54:15;;;;;;;5.20;4.03;;;3.10;99.90;;;;;;5073921;28;20182;-78
2023/12/02 01:56:41;;;;;;;4.77;4.30;;;3.10;99.90;;;;;;5055746;28;20178;-80
2023/12/02 01:59:07;;;;;;;4.13;3.73;;;3.00;99.90;;;;;;5073366;28;20171;-79
2023/12/02 02:01:33;;;;;;;6.20;4.20;;;3.00;99.90;;;;;;5055511;28;20641;-78
2023/12/02 02:03:59;;;;;;;4.93;4.53;;;3.00;99.90;;;;;;5072575;28;20180;-79
2023/12/02 02:06:25;;;;;;;4.90;4.10;;;3.10;99.90;;;;;;5073043;28;20212;-81
2023/12/02 02:08:51;;;;;;;5.93;4.60;;;3.10;99.90;;;;;;5073252;28;20256;-77
2023/12/02 02:11:17;;;;;;;5.37;4.50;;;3.10;99.90;;;;;;5073228;28;20637;-78
2023/12/02 02:13:42;;;;;;;5.87;4.47;;;3.20;99.90;;;;;;5073214;28;20177;-78
2023/12/02 02:16:08;;;;;;;4.60;4.20;;;3.20;99.90;;;;;;5072967;28;20198;-80
2023/12/02 02:18:37;;;;;;;4.50;4.10;;;3.20;99.90;;;;;;5055269;28;20593;-80
2023/12/02 02:21:03;;;;;;;6.33;4.30;;;3.30;99.90;;;;;;5073389;28;20167;-80
2023/12/02 02:23:29;;;;;;;4.87;4.47;;;3.30;99.90;;;;;;5072998;28;20194;-79
2023/12/02 02:25:56;;;;;;;4.43;4.13;;;3.20;99.90;;;;;;5072825;28;20165;-79
2023/12/02 02:28:23;;;;;;;4.63;4.23;;;3.20;99.90;;;;;;5054932;28;20208;-77
2023/12/02 02:30:49;;;;;;;4.73;4.33;;;3.20;99.90;;;;;;5072346;28;20223;-78
2023/12/02 02:33:16;;;;;;;5.00;4.10;;;3.30;99.90;;;;;;5070987;28;20250;-76
2023/12/02 02:35:42;;;;;;;4.83;4.37;;;3.30;99.90;;;;;;5071487;28;20171;-77
2023/12/02 02:38:09;;;;;;;4.87;4.47;;;3.40;99.90;;;;;;5072680;28;20203;-79
2023/12/02 02:40:35;;;;;;;4.50;4.20;;;3.30;99.90;;;;;;5072936;28;20178;-80
2023/12/02 02:43:00;;;;;;;4.83;4.33;;;3.30;99.90;;;;;;5073123;28;20183;-79
2023/12/02 02:45:26;;;;;;;4.97;4.57;;;3.30;99.90;;;;;;5073017;28;20201;-79
2023/12/02 02:47:52;;;;;;;4.80;4.40;;;3.20;99.90;;;;;;5072507;28;20220;-76
2023/12/02 02:50:18;;;;;;;7.13;5.07;;;3.20;99.90;;;;;;5076846;28;20282;-77
2023/12/02 02:52:45;;;;;;;5.37;4.70;;;3.20;99.90;;;;;;5073228;28;20610;-80
2023/12/02 02:55:11;;;;;;;5.53;4.77;;;3.20;99.90;;;;;;5055107;28;20179;-78
2023/12/02 02:57:37;;;;;;;6.13;4.47;;;3.20;99.90;;;;;;5075778;28;20168;-77
2023/12/02 03:00:10;;;;;;;5.17;4.67;;;3.20;99.90;;;;;;5076515;28;20192;-80
2023/12/02 03:02:37;;;;;;;5.13;4.63;;;3.30;99.90;;;;;;5077475;28;20206;-80
2023/12/02 03:05:04;;;;;;;4.90;4.50;;;3.20;99.90;;;;;;5077099;28;20170;-80
2023/12/02 03:07:30;;;;;;;5.23;4.73;;;3.30;99.90;;;;;;5077005;28;20215;-80
2023/12/02 03:09:56;;;;;;;7.03;5.13;;;3.30;99.90;;;;;;5076556;28;20548;-79
2023/12/02 03:12:23;;;;;;;7.63;4.90;;;3.30;99.90;;;;;;5076758;28;20168;-78
2023/12/02 03:14:49;;;;;;;5.53;4.73;;;3.30;99.90;;;;;;5059156;28;20592;-79
2023/12/02 03:17:15;;;;;;;5.07;4.07;;;3.30;99.90;;;;;;5059187;28;20194;-76
2023/12/02 03:19:41;;;;;;;4.93;4.47;;;3.20;99.90;;;;;;5078268;28;20177;-79
2023/12/02 03:22:07;;;;;;;6.17;4.93;;;3.30;99.90;;;;;;5079029;28;20176;-78
2023/12/02 03:24:32;;;;;;;5.23;4.73;;;3.30;99.90;;;;;;5080480;28;20167;-77
2023/12/02 03:26:58;;;;;;;6.00;4.80;;;3.20;99.90;;;;;;5086651;28;20176;-79
2023/12/02 03:29:24;;;;;;;5.90;4.67;;;3.20;99.90;;;;;;5083075;28;20219;-79
2023/12/02 03:31:50;;;;;;;5.23;4.63;;;3.30;99.90;;;;;;5076480;28;20174;-80
2023/12/02 03:34:15;;;;;;;5.20;4.70;;;3.30;99.90;;;;;;5076222;28;20199;-80
2023/12/02 03:36:41;;;;;;;4.87;4.43;;;3.30;99.90;;;;;;5076449;28;20180;-80
2023/12/02 03:39:07;;;;;;;5.90;5.07;;;3.20;99.90;;;;;;5076470;28;20182;-79
2023/12/02 03:41:33;;;;;;;5.93;4.60;;;3.20;99.90;;;;;;5076685;28;20183;-80
2023/12/02 03:43:58;;;;;;;5.77;4.80;;;3.20;99.90;;;;;;5077166;28;20171;-79
2023/12/02 03:46:27;;;;;;;4.87;4.47;;;3.20;99.90;;;;;;5082908;28;20210;-77
2023/12/02 03:48:53;;;;;;;5.50;4.87;;;3.20;99.90;;;;;;5077722;28;20238;-77
2023/12/02 03:51:19;;;;;;;4.57;4.17;;;3.10;99.90;;;;;;5092107;28;20179;-77
2023/12/02 03:53:45;;;;;;;5.67;4.67;;;3.00;99.90;;;;;;5082397;28;20201;-79
2023/12/02 03:56:11;;;;;;;4.80;4.23;;;3.10;99.90;;;;;;5079849;28;20251;-79
2023/12/02 03:58:37;;;;;;;5.27;4.87;;;3.10;99.90;;;;;;5075931;28;20193;-79
2023/12/02 04:01:03;;;;;;;5.23;4.73;;;3.10;99.90;;;;;;5075286;28;20226;-79
2023/12/02 04:03:29;;;;;;;5.43;4.77;;;3.10;99.90;;;;;;5075769;28;20239;-80
2023/12/02 04:05:54;;;;;;;5.27;4.70;;;3.20;99.90;;;;;;5091204;28;20189;-81
2023/12/02 04:08:20;;;;;;;6.33;4.70;;;3.10;99.90;;;;;;5098161;28;20269;-79
2023/12/02 04:10:46;;;;;;;5.50;4.90;;;3.10;99.90;;;;;;5103892;28;20178;-79
2023/12/02 04:13:12;;;;;;;5.47;4.97;;;3.20;99.90;;;;;;5095789;28;20198;-77
2023/12/02 04:15:38;;;;;;;4.63;4.23;;;3.30;99.90;;;;;;5095456;28;20632;-79
2023/12/02 04:18:04;;;;;;;5.83;4.77;;;3.30;99.90;;;;;;5095223;28;20188;-80
2023/12/02 04:20:29;;;;;;;5.33;4.63;;;3.30;99.90;;;;;;5094307;28;20264;-77
2023/12/02 04:22:55;;;;;;;5.13;4.63;;;3.30;99.90;;;;;;5094304;28;20640;-79
2023/12/02 04:25:21;;;;;;;4.97;4.47;;;3.20;99.90;;;;;;5095235;28;20208;-78
2023/12/02 04:27:47;;;;;;;6.77;4.50;;;3.20;99.90;;;;;;5094886;28;20210;-79
2023/12/02 04:30:12;;;;;;;5.07;4.57;;;3.20;99.90;;;;;;5095465;28;20185;-79
2023/12/02 04:32:39;;;;;;;5.57;5.07;;;3.10;99.90;;;;;;5095671;28;20167;-78
2023/12/02 04:35:05;;;;;;;7.40;5.00;;;3.10;99.90;;;;;;5107468;28;20182;-76
2023/12/02 04:37:32;;;;;;;4.17;3.87;;;3.00;99.90;;;;;;5095803;28;20169;-80
2023/12/02 04:39:58;;;;;;;6.57;4.60;;;3.10;99.90;;;;;;5094849;28;20185;-80
2023/12/02 04:42:24;;;;;;;5.60;4.30;;;3.10;99.90;;;;;;5094888;28;20350;-80
2023/12/02 04:44:50;;;;;;;4.80;4.40;;;3.10;99.90;;;;;;5076518;28;20181;-78
2023/12/02 04:47:16;;;;;;;6.00;4.97;;;3.10;99.90;;;;;;5094059;28;20178;-79
2023/12/02 04:49:42;;;;;;;5.20;4.67;;;3.10;99.90;;;;;;5094137;28;20682;-80
2023/12/02 04:52:08;;;;;;;5.87;5.20;;;3.10;99.90;;;;;;5094346;28;20218;-79
2023/12/02 04:54:34;;;;;;;5.33;4.83;;;3.10;99.90;;;;;;5094700;28;20208;-77
2023/12/02 04:57:00;;;;;;;4.20;3.80;;;3.00;99.90;;;;;;5094669;28;20221;-78
2023/12/02 04:59:26;;;;;;;5.17;4.77;;;3.10;99.90;;;;;;5099895;28;20177;-77
2023/12/02 05:01:52;;;;;;;5.50;5.00;;;3.10;99.90;;;;;;5108466;28;20174;-79
2023/12/02 05:04:20;;;;;;;4.97;4.50;;;3.00;99.90;;;;;;5106620;28;20171;-80
2023/12/02 05:06:46;;;;;;;4.53;3.87;;;3.10;99.90;;;;;;5108737;28;20267;-77
2023/12/02 05:09:12;;;;;;;7.37;4.40;;;3.00;99.90;;;;;;5094350;28;20210;-79
2023/12/02 05:11:38;;;;;;;4.90;4.40;;;3.10;99.90;;;;;;5094793;28;20178;-78
2023/12/02 05:14:03;;;;;;;4.60;4.20;;;3.00;99.90;;;;;;5108865;28;20179;-78
2023/12/02 05:16:29;;;;;;;6.27;4.40;;;2.90;99.90;;;;;;5095459;28;20171;-78
2023/12/02 05:18:55;;;;;;;4.97;4.47;;;3.00;99.90;;;;;;5093897;28;20527;-79
2023/12/02 05:21:21;;;;;;;5.20;4.53;;;3.10;99.90;;;;;;5094119;28;20178;-79
2023/12/02 05:23:46;;;;;;;4.80;4.33;;;3.10;99.90;;;;;;5094517;28;20185;-78
2023/12/02 05:26:12;;;;;;;4.93;4.40;;;3.00;99.90;;;;;;5105371;28;20172;-77
2023/12/02 05:28:39;;;;;;;5.03;4.23;;;3.10;99.90;;;;;;5112914;28;20190;-76
2023/12/02 05:31:05;;;;;;;4.60;3.97;;;3.10;99.90;;;;;;5114578;28;20177;-77
2023/12/02 05:33:31;;;;;;;5.00;4.60;;;3.10;99.90;;;;;;5105575;28;20171;-78
2023/12/02 05:35:57;;;;;;;5.17;4.47;;;3.20;99.90;;;;;;5113668;28;20184;-77
2023/12/02 05:38:23;;;;;;;4.30;4.00;;;3.20;99.90;;;;;;5102895;28;20172;-79
2023/12/02 05:40:48;;;;;;;4.30;3.90;;;3.20;99.90;;;;;;5095466;28;20203;-79
2023/12/02 05:43:14;;;;;;;4.00;3.70;;;3.20;99.90;;;;;;5093693;28;20192;-80
2023/12/02 05:45:40;;;;;;;4.30;3.80;;;3.20;99.90;;;;;;5093165;28;20206;-78
2023/12/02 05:48:06;;;;;;;4.60;3.87;;;3.30;99.90;;;;;;5093487;28;20207;-80
2023/12/02 05:50:32;;;;;;;4.77;4.37;;;3.30;99.90;;;;;;5093540;28;20173;-79
2023/12/02 05:52:58;;;;;;;4.50;4.10;;;3.30;99.90;;;;;;5094283;28;20168;-79
2023/12/02 05:55:28;;;;;;;5.60;5.10;;;3.30;99.90;;;;;;5094585;28;20171;-78
2023/12/02 05:57:54;;;;;;;4.97;4.53;;;3.20;99.90;;;;;;5094522;28;20179;-78
2023/12/02 06:00:20;;;;;;;5.00;4.60;;;3.10;99.90;;;;;;5094492;28;20645;-78
2023/12/02 06:02:45;;;;;;;5.23;4.73;;;3.10;99.90;;;;;;5076810;28;20189;-77
2023/12/02 06:05:11;;;;;;;5.23;4.40;;;3.10;99.90;;;;;;5094870;28;20174;-77
2023/12/02 06:07:37;;;;;;;4.83;4.33;;;3.20;99.90;;;;;;5097672;28;20221;-79
2023/12/02 06:10:03;;;;;;;4.83;4.23;;;3.20;99.90;;;;;;5094411;28;20225;-77
2023/12/02 06:12:29;;;;;;;3.97;3.67;;;3.20;99.90;;;;;;5075317;28;20170;-77
2023/12/02 06:14:54;;;;;;;3.90;3.60;;;3.10;99.90;;;;;;5092749;28;20214;-78
2023/12/02 06:17:20;;;;;;;3.90;3.60;;;3.10;99.90;;;;;;5093692;28;20168;-78
2023/12/02 06:19:46;;;;;;;3.50;3.20;;;3.10;99.90;;;;;;5093840;28;20543;-80
2023/12/02 06:22:13;;;;;;;4.10;3.80;;;3.20;99.90;;;;;;5093748;28;20172;-80
2023/12/02 06:24:39;;;;;;;4.13;3.83;;;3.10;99.90;;;;;;5093397;28;20204;-79
2023/12/02 06:27:05;;;;;;;5.10;4.57;;;3.00;99.90;;;;;;5076207;28;20186;-79
2023/12/02 06:29:31;;;;;;;5.13;4.73;;;3.10;99.90;;;;;;5093621;28;20329;-79
2023/12/02 06:31:57;;;;;;;4.60;4.20;;;3.10;99.90;;;;;;5093091;28;20168;-79
2023/12/02 06:34:23;;;;;;;4.40;4.00;;;3.00;99.90;;;;;;5075711;28;20200;-78
2023/12/02 06:36:48;;;;;;;5.00;4.50;;;3.10;99.90;;;;;;5093377;28;20208;-78
2023/12/02 06:39:15;;;;;;;4.37;4.07;;;3.20;99.90;;;;;;5093106;28;20187;-76
2023/12/02 06:41:41;;;;;;;4.93;4.53;;;3.20;99.90;;;;;;5094531;28;20528;-76
2023/12/02 06:44:08;;;;;;;4.43;4.03;;;3.10;99.90;;;;;;5098837;28;20177;-78
2023/12/02 06:46:34;;;;;;;4.73;4.33;;;3.10;99.90;;;;;;5099633;28;20163;-80
2023/12/02 06:49:00;;;;;;;3.83;3.57;;;3.00;99.90;;;;;;5100671;28;20204;-81
2023/12/02 06:51:28;;;;;;;4.70;4.30;;;3.10;99.90;;;;;;5096100;28;20180;-79
2023/12/02 06:53:57;;;;;;;5.07;4.63;;;3.10;99.90;;;;;;5098054;28;20218;-77
2023/12/02 06:56:24;;;;;;;4.50;4.17;;;3.10;99.90;;;;;;5096543;28;20183;-76
2023/12/02 06:58:52;;;;;;;4.10;3.80;;;3.10;99.90;;;;;;5082416;28;20184;-79
2023/12/02 07:01:32;;;;;;;4.57;4.17;;;3.00;99.90;;;;;;5096821;28;20183;-79
2023/12/02 07:03:59;;;;;;;4.73;4.33;;;2.90;99.90;;;;;;5096664;28;20234;-79
2023/12/02 07:06:26;;;;;;;4.43;4.07;;;3.00;99.90;;;;;;5094533;28;20230;-80
2023/12/02 07:08:54;;;;;;;4.90;4.37;;;3.00;99.90;;;;;;5092914;28;20247;-79
2023/12/02 07:11:20;;;;;;;5.13;4.53;;;3.10;99.90;;;;;;5093659;28;20171;-80
2023/12/02 07:13:46;;;;;;;4.70;4.30;;;3.00;99.90;;;;;;5094483;28;20180;-77
2023/12/02 07:16:12;;;;;;;4.73;4.30;;;3.10;99.90;;;;;;5095493;28;20241;-80
2023/12/02 07:18:39;;;;;;;5.37;4.73;;;3.10;99.90;;;;;;5100775;28;20176;-79
2023/12/02 07:21:05;;;;;;;5.07;4.60;;;3.10;99.90;;;;;;5095551;28;20250;-78
2023/12/02 07:23:31;;;;;;;4.90;4.47;;;3.20;99.90;;;;;;5103371;28;20300;-78
2023/12/02 07:25:58;;;;;;;9.43;4.07;;;3.10;99.90;;;;;;5078214;28;20644;-77
2023/12/02 07:28:24;;;;;;;5.23;4.73;;;3.00;99.90;;;;;;5097746;28;20206;-79
2023/12/02 07:30:50;;;;;;;5.60;4.53;;;3.00;99.90;;;;;;5101132;28;20201;-78
2023/12/02 07:33:20;;;;;;;6.57;4.37;;;3.00;99.90;;;;;;5075619;28;20179;-79
2023/12/02 07:35:45;;;;;;;5.03;4.53;;;2.80;99.90;;;;;;5095141;28;20172;-77
2023/12/02 07:38:11;;;;;;;7.17;5.73;;;2.90;99.90;;;;;;5097211;28;20181;-79
2023/12/02 07:40:39;;;;;;;5.67;5.13;;;2.70;99.90;;;;;;5094314;28;20261;-79
2023/12/02 07:43:05;;;;;;;9.37;8.47;;;2.70;99.90;;;;;;5094322;28;20178;-78
2023/12/02 07:45:31;;;;;;;6.37;5.67;;;2.70;99.90;;;;;;5096905;28;20264;-78
2023/12/02 07:47:57;;;;;;;8.17;6.70;;;2.70;99.90;;;;;;5096786;28;20182;-78
2023/12/02 07:50:23;;;;;;;8.70;7.90;;;2.70;99.90;;;;;;5077706;28;20174;-77
2023/12/02 07:52:49;;;;;;;7.97;7.17;;;2.70;99.90;;;;;;5097489;28;20562;-79
2023/12/02 07:55:14;;;;;;;7.57;6.87;;;2.70;99.90;;;;;;5097898;28;20186;-77
2023/12/02 07:57:40;;;;;;;10.33;9.33;;;2.80;99.90;;;;;;5101153;28;20171;-77
2023/12/02 08:00:07;;;;;;;9.67;8.77;;;2.90;99.90;;;;;;5112127;28;20157;-77
2023/12/02 08:02:34;;;;;;;10.70;9.80;;;2.90;99.90;;;;;;5109011;28;20162;-78
2023/12/02 08:04:59;;;;;;;11.30;9.87;;;2.80;99.90;;;;;;5102509;28;20197;-79
2023/12/02 08:07:25;;;;;;;10.70;9.70;;;2.90;99.90;;;;;;5131124;27;20712;-79
2023/12/02 08:09:51;;;;;;;10.13;9.23;;;2.90;99.90;;;;;;5136998;27;20264;-76
2023/12/02 08:12:17;;;;;;;9.63;8.63;;;2.80;99.90;;;;;;5137010;27;20183;-77
2023/12/02 08:14:43;;;;;;;6.97;6.40;;;2.80;99.90;;;;;;5136726;27;20199;-78
2023/12/02 08:17:08;;;;;;;7.67;6.50;;;2.50;99.90;;;;;;5136553;27;20171;-77
2023/12/02 08:19:35;;;;;;;7.20;5.90;;;2.60;99.90;;;;;;5136115;27;20666;-79
2023/12/02 08:22:01;;;;;;;6.73;5.47;;;2.50;99.90;;;;;;5142616;27;20180;-77
2023/12/02 08:24:27;;;;;;;6.17;5.57;;;2.60;99.90;;;;;;5154246;27;20184;-75
2023/12/02 08:26:53;;;;;;;5.83;5.23;;;2.50;99.90;;;;;;5139829;27;20517;-79
2023/12/02 08:29:18;;;;;;;5.87;5.23;;;2.50;99.90;;;;;;5137394;27;20204;-77
2023/12/02 08:31:45;;;;;;;6.70;5.70;;;2.50;99.90;;;;;;5137015;27;20224;-78
2023/12/02 08:34:11;;;;;;;7.23;5.60;;;2.20;99.90;;;;;;5139263;27;20219;-78
2023/12/02 08:36:37;;;;;;;7.20;5.87;;;2.00;99.90;;;;;;5137747;27;20181;-78
2023/12/02 08:39:04;;;;;;;7.87;6.57;;;2.10;99.90;;;;;;5137413;27;20188;-77
2023/12/02 08:41:31;;;;;;;9.33;6.87;;;2.30;99.90;;;;;;5147782;27;20186;-78
2023/12/02 08:43:56;;;;;;;6.97;6.27;;;2.40;99.90;;;;;;5138102;27;20173;-80
2023/12/02 08:46:22;;;;;;;6.30;5.70;;;2.80;99.90;;;;;;5150363;27;20192;-76
2023/12/02 08:48:48;;;;;;;6.73;6.13;;;3.00;99.90;;;;;;5150665;27;20200;-75
2023/12/02 08:51:14;;;;;;;6.97;6.20;;;3.10;99.90;;;;;;5136629;27;20184;-75
2023/12/02 08:53:40;;;;;;;6.63;6.00;;;3.00;99.90;;;;;;5143580;27;20182;-76
2023/12/02 08:56:06;;;;;;;8.50;6.07;;;2.60;99.90;;;;;;5138921;27;20179;-76
2023/12/02 08:58:32;;;;;;;6.40;5.80;;;2.30;99.90;;;;;;5137679;27;20200;-78
2023/12/02 09:00:57;;;;;;;6.90;6.20;;;2.20;99.90;;;;;;5137601;27;20586;-77
2023/12/02 09:03:23;;;;;;;6.90;6.20;;;2.10;99.90;;;;;;5137654;27;20192;-79
2023/12/02 09:05:53;;;;;;;6.97;5.40;;;2.30;99.90;;;;;;5136252;27;20315;-76
2023/12/02 09:08:19;;;;;;;5.87;5.37;;;2.30;99.90;;;;;;5100268;28;20731;-78
2023/12/02 09:10:45;;;;;;;6.90;6.20;;;2.40;99.90;;;;;;5114822;28;20181;-77
2023/12/02 09:13:32;;;;;;;7.87;5.80;;;2.40;99.90;;;;;;5115336;28;20173;-77
2023/12/02 09:16:00;;;;;;;6.37;5.77;;;2.30;99.90;;;;;;5114870;28;20637;-76
2023/12/02 09:18:36;;;;;;;7.30;5.77;;;2.30;99.90;;;;;;5115735;28;20189;-78
2023/12/02 09:21:02;;;;;;;6.93;6.23;;;2.40;99.90;;;;;;5114991;28;20181;-79
2023/12/02 09:23:29;;;;;;;7.33;6.53;;;2.40;99.90;;;;;;5097250;28;20187;-77
2023/12/02 09:26:01;;;;;;;11.80;10.67;;;2.50;99.90;;;;;;5117746;28;20582;-77
2023/12/02 09:28:29;;;;;;;12.43;11.33;;;2.50;99.90;;;;;;5117951;28;20205;-77
2023/12/02 09:31:05;;;;;;;9.60;8.63;;;2.50;99.90;;;;;;5115958;28;20298;-77
2023/12/02 09:33:32;;;;;;;11.17;9.30;;;3.10;99.90;;;;;;5115283;28;20154;-78
2023/12/02 09:36:02;;;;;;;11.10;8.73;;;2.50;99.90;;;;;;5115493;28;20528;-79
2023/12/02 09:38:28;;;;;;;9.60;8.57;;;2.60;99.90;;;;;;5114274;28;20161;-78
2023/12/02 09:41:04;;;;;;;10.00;8.90;;;2.50;99.90;;;;;;5096015;28;20278;-78
2023/12/02 09:43:37;;;;;;;9.17;8.27;;;2.40;99.90;;;;;;5114640;28;20183;-78
2023/12/02 09:46:15;;;;;;;7.87;7.07;;;2.40;99.90;;;;;;5114876;28;20530;-79
2023/12/02 09:48:56;;;;;;;8.97;8.07;;;2.40;99.90;;;;;;5114208;28;20210;-77
2023/12/02 09:52:04;;;;;;;8.30;7.50;;;2.50;99.90;;;;;;5114505;28;20561;-78
2023/12/02 09:55:07;;;;;;;7.63;6.47;;;2.50;99.90;;;;;;5101127;28;20174;-79
2023/12/02 09:57:36;;;;;;;7.00;6.30;;;2.60;99.90;;;;;;5114678;28;20166;-77
2023/12/02 10:00:12;;;;;;;6.60;6.00;;;2.60;99.90;;;;;;5114220;28;20195;-77
2023/12/02 10:03:37;;;;;;;7.30;6.17;;;2.50;99.90;;;;;;5116500;28;20162;-75
2023/12/02 10:06:31;;;;;;;6.63;6.03;;;2.10;99.90;;;;;;5025504;28;20217;-76
2023/12/02 10:08:59;;;;;;;6.73;6.13;;;2.20;99.90;;;;;;5051833;28;20293;-77
2023/12/02 10:11:53;;;;;;;7.57;6.43;;;2.00;99.90;;;;;;5114237;27;20184;-78
2023/12/02 10:14:23;;;;;;;6.53;5.60;;;2.00;99.90;;;;;;5134829;27;20154;-77
2023/12/02 10:16:53;;;;;;;5.90;5.30;;;2.00;99.90;;;;;;5132744;27;20216;-76
2023/12/02 10:19:30;;;;;;;6.90;5.10;;;2.00;99.90;;;;;;5133017;27;20169;-78
2023/12/02 10:21:59;;;;;;;5.37;4.83;;;2.20;99.90;;;;;;5134279;27;20165;-77
2023/12/02 10:24:49;;;;;;;5.27;4.83;;;2.30;99.90;;;;;;5134873;27;20173;-78
2023/12/02 10:27:17;;;;;;;6.00;4.60;;;2.40;99.90;;;;;;5134140;27;20163;-78
2023/12/02 10:30:10;;;;;;;4.70;4.30;;;2.30;99.90;;;;;;5133888;27;20200;-77
2023/12/02 10:32:54;;;;;;;5.23;4.07;;;2.40;99.90;;;;;;5137980;27;20155;-77
2023/12/02 10:35:38;;;;;;;4.63;4.30;;;2.40;99.90;;;;;;5136301;28;20167;-79
2023/12/02 10:38:27;;;;;;;4.87;4.47;;;2.40;99.90;;;;;;5141197;27;20225;-79
2023/12/02 10:41:16;;;;;;;4.87;4.47;;;2.10;99.90;;;;;;5101226;28;20518;-77
2023/12/02 10:43:44;;;;;;;5.43;4.93;;;2.10;99.90;;;;;;5095632;28;20158;-76
2023/12/02 10:46:11;;;;;;;8.67;6.27;;;2.30;99.90;;;;;;5095486;28;20193;-76
2023/12/02 10:48:39;;;;;;;6.43;5.83;;;2.40;99.90;;;;;;5099797;28;20747;-77
2023/12/02 10:51:07;;;;;;;7.50;5.83;;;2.40;99.90;;;;;;5095268;28;20213;-77
2023/12/02 10:53:36;;;;;;;5.17;4.73;;;2.20;99.90;;;;;;5100201;28;20171;-76
2023/12/02 10:56:10;;;;;;;5.30;4.80;;;2.00;99.90;;;;;;5092639;28;20179;-77
2023/12/02 10:58:39;;;;;;;6.10;4.90;;;1.90;99.90;;;;;;5092348;28;20191;-77
2023/12/02 11:01:08;;;;;;;5.50;5.00;;;2.00;99.90;;;;;;5095081;28;20170;-77
2023/12/02 11:04:01;;;;;;;5.90;5.30;;;1.90;99.90;;;;;;5097708;28;20589;-79
2023/12/02 11:06:39;;;;;;;5.50;4.63;;;1.70;99.90;;;;;;5086669;28;20260;-78
2023/12/02 11:09:17;;;;;;;4.60;4.20;;;2.00;99.90;;;;;;5072774;28;20285;-78
2023/12/02 11:11:56;;;;;;;5.27;4.87;;;2.10;99.90;;;;;;5072303;28;20727;-75
2023/12/02 11:14:24;;;;;;;4.70;4.30;;;2.20;99.90;;;;;;5072601;28;20171;-77
2023/12/02 11:17:27;;;;;;;5.50;5.00;;;2.20;99.90;;;;;;5072721;28;20515;-76
2023/12/02 11:20:22;;;;;;;4.17;3.87;;;2.30;99.90;;;;;;5075946;28;20585;-80
2023/12/02 11:23:11;;;;;;;5.60;3.60;;;2.30;99.90;;;;;;5076230;28;20156;-75
2023/12/02 11:26:08;;;;;;;4.20;3.80;;;2.30;99.90;;;;;;5076428;28;20253;-80
2023/12/02 11:28:55;;;;;;;4.37;3.80;;;2.50;99.90;;;;;;5075640;28;20222;-79
2023/12/02 11:31:52;;;;;;;4.13;3.77;;;2.50;99.90;;;;;;5075485;28;20160;-78
2023/12/02 11:34:43;;;;;;;4.50;3.83;;;2.70;99.90;;;;;;5075957;28;20251;-80
2023/12/02 11:37:11;;;;;;;4.97;3.50;;;2.70;99.90;;;;;;5075749;28;20175;-78
2023/12/02 11:40:03;;;;;;;4.07;3.30;;;2.70;99.90;;;;;;5075915;28;20178;-75
2023/12/02 11:42:38;;;;;;;2.03;1.93;;;2.60;99.90;;;;;;5075849;28;20275;-76
2023/12/02 11:45:24;;;;;;;3.80;2.30;;;2.50;99.90;;;;;;5057849;28;20185;-76
2023/12/02 11:48:15;;;;;;;1.80;1.70;;;2.30;99.90;;;;;;5060183;28;20522;-77
2023/12/02 11:50:57;;;;;;;1.90;1.80;;;2.30;99.90;;;;;;5075589;28;20187;-79
2023/12/02 11:54:13;;;;;;;1.53;1.53;;;2.20;99.90;;;;;;5075547;28;20272;-80
2023/12/02 11:56:59;;;;;;;1.93;1.83;;;2.20;99.90;;;;;;5057469;28;20252;-78
2023/12/02 11:59:31;;;;;;;1.90;1.80;;;2.30;99.90;;;;;;5057740;28;20245;-75
2023/12/02 12:02:31;;;;;;;2.00;1.90;;;2.30;99.90;;;;;;5075773;28;20522;-78
2023/12/02 12:05:10;;;;;;;1.80;1.70;;;2.30;99.90;;;;;;5066395;28;20186;-79
2023/12/02 12:08:12;;;;;;;2.73;1.73;;;2.30;99.90;;;;;;5080223;28;20334;-80
2023/12/02 12:10:39;;;;;;;2.00;1.90;;;2.40;99.90;;;;;;5075832;28;20231;-77
2023/12/02 12:13:09;;;;;;;4.13;2.20;;;2.50;99.90;;;;;;5080214;28;20186;-79
2023/12/02 12:15:36;;;;;;;2.17;2.07;;;2.60;99.90;;;;;;5077558;28;20578;-78
2023/12/02 12:18:02;;;;;;;2.40;2.20;;;2.80;99.90;;;;;;5064003;28;20242;-79
2023/12/02 12:20:31;;;;;;;2.10;2.00;;;2.80;99.90;;;;;;5085186;28;20770;-79
2023/12/02 12:22:57;;;;;;;1.80;1.70;;;2.80;99.90;;;;;;5074371;28;20179;-78
2023/12/02 12:25:28;;;;;;;2.17;1.87;;;2.70;99.90;;;;;;5073876;28;20175;-79
2023/12/02 12:27:59;;;;;;;2.07;1.80;;;2.70;99.90;;;;;;5074682;28;20160;-79
2023/12/02 12:30:25;;;;;;;2.37;2.13;;;2.80;99.90;;;;;;5073959;28;20686;-79
2023/12/02 12:32:51;;;;;;;2.40;2.30;;;2.70;99.90;;;;;;5074998;28;20175;-78
2023/12/02 12:35:19;;;;;;;2.50;2.33;;;2.70;99.90;;;;;;5075368;28;20172;-78
2023/12/02 12:37:45;;;;;;;2.10;2.00;;;2.70;99.90;;;;;;5077643;28;20652;-76
2023/12/02 12:40:12;;;;;;;2.50;2.30;;;2.60;99.90;;;;;;5083867;28;20178;-76
2023/12/02 12:42:48;;;;;;;3.43;2.17;;;2.60;99.90;;;;;;5084958;28;20167;-78
2023/12/02 12:45:14;;;;;;;2.13;2.03;;;2.60;99.90;;;;;;5079396;28;20588;-78
2023/12/02 12:47:45;;;;;;;2.40;2.00;;;2.60;99.90;;;;;;5056789;28;20203;-78
2023/12/02 12:50:12;;;;;;;2.00;1.90;;;2.70;99.90;;;;;;5074009;28;20202;-78
2023/12/02 12:53:11;;;;;;;2.20;2.10;;;2.80;99.90;;;;;;5073597;28;20190;-77
2023/12/02 12:55:45;;;;;;;1.90;1.80;;;2.90;99.90;;;;;;5073849;28;20172;-78
2023/12/02 12:58:16;;;;;;;1.90;1.80;;;2.80;99.90;;;;;;5073875;28;20170;-78
2023/12/02 13:00:50;;;;;;;5.30;3.70;;;2.80;99.90;;;;;;5075663;28;20535;-77
2023/12/02 13:03:31;;;;;;;4.73;3.57;;;2.80;99.90;;;;;;5079088;28;20525;-78
2023/12/02 13:06:30;;;;;;;2.70;2.50;;;2.80;99.90;;;;;;5074089;28;20515;-77
2023/12/02 13:08:56;;;;;;;2.50;2.40;;;2.80;99.90;;;;;;5055919;28;20730;-79
2023/12/02 13:11:23;;;;;;;7.67;2.30;;;2.70;99.90;;;;;;5074717;28;20169;-79